createdAt,value
2024-01-06T00:00:31.177Z,7.35
2024-01-06T00:01:29.340Z,7.15
2024-01-06T00:02:27.595Z,6.05
2024-01-06T00:03:25.569Z,7.85
2024-01-06T00:04:23.809Z,7.22
2024-01-06T00:05:21.545Z,6.12
2024-01-06T00:06:19.353Z,5.87
2024-01-06T00:07:17.416Z,5.62
2024-01-06T00:08:15.470Z,6.80
2024-01-06T00:09:13.008Z,6.55
2024-01-06T00:10:10.761Z,7.03
2024-01-06T00:11:09.002Z,8.95
2024-01-06T00:12:07.142Z,6.85
2024-01-06T00:13:05.571Z,6.12
2024-01-06T00:14:03.784Z,7.35
2024-01-06T00:15:02.144Z,6.60
2024-01-06T00:16:00.591Z,7.85
2024-01-06T00:16:58.521Z,6.45
2024-01-06T00:17:56.377Z,7.87
2024-01-06T00:18:54.700Z,5.68
2024-01-06T00:19:53.001Z,6.15
2024-01-06T00:20:50.431Z,6.70
2024-01-06T00:21:47.762Z,7.30
2024-01-06T00:22:45.932Z,8.07
2024-01-06T00:23:43.476Z,7.93
2024-01-06T00:24:40.678Z,6.90
2024-01-06T00:25:38.045Z,5.90
2024-01-06T00:26:35.263Z,7.53
2024-01-06T00:27:32.829Z,9.10
2024-01-06T00:28:30.307Z,7.72
2024-01-06T00:29:27.644Z,8.48
2024-01-06T00:30:25.637Z,8.00
2024-01-06T00:31:23.179Z,8.45
2024-01-06T00:32:21.022Z,6.70
2024-01-06T00:33:18.743Z,8.85
2024-01-06T00:34:16.296Z,5.93
2024-01-06T00:35:13.790Z,7.50
2024-01-06T00:36:11.492Z,7.97
2024-01-06T00:37:09.063Z,5.70
2024-01-06T00:38:06.524Z,6.55
2024-01-06T00:39:05.318Z,7.65
2024-01-06T00:40:04.015Z,8.18
2024-01-06T00:41:01.345Z,6.97
2024-01-06T00:41:58.678Z,6.95
2024-01-06T00:42:56.045Z,7.80
2024-01-06T00:43:53.592Z,7.25
2024-01-06T00:44:51.036Z,6.95
2024-01-06T00:45:48.435Z,5.37
2024-01-06T00:46:46.988Z,6.45
2024-01-06T00:47:44.465Z,6.53
2024-01-06T00:48:41.934Z,6.53
2024-01-06T00:49:39.813Z,6.65
2024-01-06T00:50:37.256Z,6.45
2024-01-06T00:51:36.851Z,7.60
2024-01-06T00:52:35.651Z,7.60
2024-01-06T00:53:32.927Z,7.85
2024-01-06T00:54:31.593Z,7.05
2024-01-06T00:55:29.086Z,6.53
2024-01-06T00:56:28.461Z,7.00
2024-01-06T00:57:25.897Z,5.70
2024-01-06T00:58:23.234Z,7.85
2024-01-06T00:59:20.669Z,13.02
2024-01-06T01:00:18.243Z,8.48
2024-01-06T01:01:15.764Z,8.95
2024-01-06T01:02:13.149Z,7.28
2024-01-06T01:03:10.499Z,6.28
2024-01-06T01:04:07.950Z,6.57
2024-01-06T01:05:05.706Z,8.38
2024-01-06T01:06:03.806Z,7.05
2024-01-06T01:07:01.242Z,7.43
2024-01-06T01:07:58.767Z,6.65
2024-01-06T01:08:56.290Z,8.77
2024-01-06T01:09:53.662Z,8.43
2024-01-06T01:10:50.973Z,7.70
2024-01-06T01:11:48.686Z,6.82
2024-01-06T01:12:46.250Z,8.23
2024-01-06T01:13:43.993Z,10.13
2024-01-06T01:14:41.271Z,11.95
2024-01-06T01:15:38.608Z,7.75
2024-01-06T01:16:36.038Z,9.73
2024-01-06T01:17:33.531Z,11.25
2024-01-06T01:18:31.049Z,8.15
2024-01-06T01:19:28.691Z,8.27
2024-01-06T01:20:26.240Z,11.40
2024-01-06T01:21:23.615Z,6.78
2024-01-06T01:22:20.881Z,8.80
2024-01-06T01:23:18.420Z,6.15
2024-01-06T01:24:15.859Z,9.35
2024-01-06T01:25:14.479Z,7.07
2024-01-06T01:26:12.002Z,6.65
2024-01-06T01:27:09.380Z,10.60
2024-01-06T01:28:06.948Z,9.73
2024-01-06T01:29:04.417Z,9.50
2024-01-06T01:30:01.884Z,10.45
2024-01-06T01:30:59.336Z,9.82
2024-01-06T01:31:57.127Z,10.07
2024-01-06T01:32:54.804Z,12.15
2024-01-06T01:33:52.363Z,10.38
2024-01-06T01:34:50.134Z,10.68
2024-01-06T01:35:47.593Z,10.18
2024-01-06T01:36:45.397Z,9.32
2024-01-06T01:37:42.763Z,9.63
2024-01-06T01:38:40.195Z,8.55
2024-01-06T01:39:37.588Z,9.20
2024-01-06T01:40:35.194Z,9.68
2024-01-06T01:41:32.464Z,10.82
2024-01-06T01:42:29.928Z,10.30
2024-01-06T01:43:27.554Z,8.00
2024-01-06T01:44:25.050Z,12.10
2024-01-06T01:45:22.601Z,9.02
2024-01-06T01:46:20.392Z,10.98
2024-01-06T01:47:20.283Z,11.85
2024-01-06T01:48:17.858Z,8.57
2024-01-06T01:49:15.441Z,12.05
2024-01-06T01:50:14.650Z,9.85
2024-01-06T01:51:12.063Z,9.07
2024-01-06T01:52:09.554Z,8.20
2024-01-06T01:53:07.377Z,9.48
2024-01-06T01:54:06.397Z,7.80
2024-01-06T01:55:04.187Z,8.50
2024-01-06T01:56:05.770Z,8.88
2024-01-06T01:57:04.317Z,7.75
2024-01-06T01:58:01.807Z,7.75
2024-01-06T01:58:59.245Z,6.43
2024-01-06T01:59:56.973Z,8.50
2024-01-06T02:00:54.381Z,7.18
2024-01-06T02:01:51.908Z,8.93
2024-01-06T02:02:49.619Z,7.87
2024-01-06T02:03:47.400Z,8.02
2024-01-06T02:04:46.919Z,8.70
2024-01-06T02:05:44.317Z,8.00
2024-01-06T02:06:41.997Z,7.18
2024-01-06T02:07:39.428Z,6.97
2024-01-06T02:08:36.851Z,7.65
2024-01-06T02:09:34.553Z,7.37
2024-01-06T02:10:31.864Z,7.68
2024-01-06T02:11:29.238Z,8.07
2024-01-06T02:12:26.655Z,7.15
2024-01-06T02:13:25.447Z,7.75
2024-01-06T02:14:22.712Z,5.72
2024-01-06T02:15:20.951Z,7.47
2024-01-06T02:16:18.532Z,6.85
2024-01-06T02:17:15.924Z,8.00
2024-01-06T02:18:13.587Z,8.93
2024-01-06T02:19:13.394Z,6.90
2024-01-06T02:20:11.810Z,7.12
2024-01-06T02:21:09.490Z,8.30
2024-01-06T02:22:06.972Z,8.50
2024-01-06T02:23:04.373Z,11.38
2024-01-06T02:24:01.860Z,8.75
2024-01-06T02:24:59.255Z,9.20
2024-01-06T02:25:57.653Z,10.40
2024-01-06T02:26:55.051Z,8.27
2024-01-06T02:27:52.486Z,11.65
2024-01-06T02:28:50.910Z,10.65
2024-01-06T02:29:48.300Z,12.25
2024-01-06T02:30:46.008Z,16.48
2024-01-06T02:31:43.591Z,13.57
2024-01-06T02:32:41.154Z,14.73
2024-01-06T02:33:39.754Z,13.75
2024-01-06T02:34:40.062Z,14.27
2024-01-06T02:35:37.958Z,13.32
2024-01-06T02:36:35.360Z,10.32
2024-01-06T02:37:32.733Z,10.90
2024-01-06T02:38:30.085Z,13.82
2024-01-06T02:39:27.524Z,11.05
2024-01-06T02:40:24.740Z,12.45
2024-01-06T02:41:22.096Z,9.27
2024-01-06T02:42:19.660Z,7.53
2024-01-06T02:43:17.098Z,6.90
2024-01-06T02:44:15.746Z,6.93
2024-01-06T02:45:13.247Z,7.10
2024-01-06T02:46:10.695Z,8.05
2024-01-06T02:47:08.346Z,9.15
2024-01-06T02:48:06.060Z,7.35
2024-01-06T02:49:03.577Z,9.23
2024-01-06T02:50:01.231Z,7.03
2024-01-06T02:50:58.679Z,9.07
2024-01-06T02:51:56.076Z,7.60
2024-01-06T02:52:53.389Z,9.32
2024-01-06T02:53:50.663Z,9.73
2024-01-06T02:54:48.120Z,9.93
2024-01-06T02:55:45.568Z,14.55
2024-01-06T02:56:42.809Z,9.73
2024-01-06T02:57:40.373Z,10.25
2024-01-06T02:58:37.728Z,8.48
2024-01-06T02:59:36.367Z,8.13
2024-01-06T03:00:33.836Z,8.38
2024-01-06T03:01:33.150Z,9.70
2024-01-06T03:02:30.798Z,7.10
2024-01-06T03:03:28.215Z,9.70
2024-01-06T03:04:25.773Z,8.50
2024-01-06T03:05:23.299Z,9.73
2024-01-06T03:06:20.796Z,7.43
2024-01-06T03:07:18.206Z,8.88
2024-01-06T03:08:15.594Z,8.98
2024-01-06T03:09:13.365Z,9.63
2024-01-06T03:10:10.926Z,9.00
2024-01-06T03:11:08.432Z,8.68
2024-01-06T03:12:08.749Z,8.68
2024-01-06T03:13:06.592Z,11.00
2024-01-06T03:14:04.237Z,7.93
2024-01-06T03:15:01.559Z,7.78
2024-01-06T03:15:59.124Z,7.05
2024-01-06T03:16:56.544Z,10.00
2024-01-06T03:17:54.283Z,10.10
2024-01-06T03:18:52.071Z,10.40
2024-01-06T03:19:49.667Z,13.65
2024-01-06T03:20:47.377Z,8.73
2024-01-06T03:21:44.825Z,11.27
2024-01-06T03:22:42.230Z,11.82
2024-01-06T03:23:40.168Z,12.75
2024-01-06T03:24:38.519Z,11.57
2024-01-06T03:25:35.976Z,11.90
2024-01-06T03:26:33.474Z,13.25
2024-01-06T03:27:30.797Z,12.50
2024-01-06T03:28:28.174Z,14.35
2024-01-06T03:29:25.450Z,11.93
2024-01-06T03:30:22.828Z,14.60
2024-01-06T03:31:20.216Z,15.05
2024-01-06T03:32:17.678Z,16.75
2024-01-06T03:33:15.207Z,12.77
2024-01-06T03:34:13.120Z,12.23
2024-01-06T03:35:10.524Z,15.68
2024-01-06T03:36:08.524Z,15.30
2024-01-06T03:37:06.419Z,12.60
2024-01-06T03:38:04.306Z,15.88
2024-01-06T03:39:01.828Z,14.95
2024-01-06T03:39:59.248Z,14.98
2024-01-06T03:40:56.606Z,14.05
2024-01-06T03:41:54.018Z,15.63
2024-01-06T03:42:51.378Z,13.35
2024-01-06T03:43:48.596Z,12.32
2024-01-06T03:44:46.015Z,14.90
2024-01-06T03:45:43.479Z,11.40
2024-01-06T03:46:41.031Z,11.45
2024-01-06T03:47:38.405Z,15.82
2024-01-06T03:48:36.534Z,13.18
2024-01-06T03:49:34.141Z,13.73
2024-01-06T03:50:31.580Z,16.40
2024-01-06T03:51:29.191Z,13.32
2024-01-06T03:52:26.757Z,14.50
2024-01-06T03:53:27.090Z,16.62
2024-01-06T03:54:25.513Z,15.10
2024-01-06T03:55:23.974Z,14.85
2024-01-06T03:56:21.130Z,15.18
2024-01-06T03:57:18.523Z,14.45
2024-01-06T03:58:16.025Z,13.55
2024-01-06T03:59:13.345Z,13.48
2024-01-06T04:00:11.314Z,13.02
2024-01-06T04:01:08.585Z,16.27
2024-01-06T04:02:05.938Z,13.07
2024-01-06T04:03:03.905Z,14.02
2024-01-06T04:04:01.138Z,13.23
2024-01-06T04:04:58.679Z,10.60
2024-01-06T04:05:56.236Z,11.38
2024-01-06T04:06:53.650Z,11.12
2024-01-06T04:07:51.375Z,8.70
2024-01-06T04:08:48.918Z,11.00
2024-01-06T04:09:46.327Z,10.52
2024-01-06T04:10:44.570Z,8.98
2024-01-06T04:11:41.938Z,10.35
2024-01-06T04:12:39.599Z,7.30
2024-01-06T04:13:37.146Z,13.27
2024-01-06T04:14:34.427Z,8.35
2024-01-06T04:15:31.888Z,7.28
2024-01-06T04:16:29.535Z,9.60
2024-01-06T04:17:28.387Z,9.70
2024-01-06T04:18:26.045Z,8.25
2024-01-06T04:19:23.734Z,7.55
2024-01-06T04:20:21.186Z,8.48
2024-01-06T04:21:18.557Z,7.75
2024-01-06T04:22:15.904Z,11.82
2024-01-06T04:23:13.263Z,7.85
2024-01-06T04:24:10.537Z,8.93
2024-01-06T04:25:08.287Z,8.43
2024-01-06T04:26:06.323Z,8.13
2024-01-06T04:27:03.675Z,9.38
2024-01-06T04:28:00.861Z,11.20
2024-01-06T04:28:58.080Z,9.80
2024-01-06T04:29:55.643Z,11.02
2024-01-06T04:30:53.309Z,9.52
2024-01-06T04:31:50.862Z,11.07
2024-01-06T04:32:49.934Z,13.98
2024-01-06T04:33:47.494Z,11.10
2024-01-06T04:34:44.848Z,9.02
2024-01-06T04:35:42.409Z,11.80
2024-01-06T04:36:39.793Z,11.25
2024-01-06T04:37:37.229Z,9.35
2024-01-06T04:38:34.411Z,9.65
2024-01-06T04:39:33.123Z,8.32
2024-01-06T04:40:31.626Z,8.87
2024-01-06T04:41:29.035Z,6.87
2024-01-06T04:42:27.015Z,7.90
2024-01-06T04:43:24.309Z,7.35
2024-01-06T04:44:23.064Z,9.57
2024-01-06T04:45:21.001Z,7.82
2024-01-06T04:46:18.401Z,9.38
2024-01-06T04:47:15.669Z,8.40
2024-01-06T04:48:13.493Z,8.98
2024-01-06T04:49:11.945Z,8.88
2024-01-06T04:50:09.658Z,8.15
2024-01-06T04:51:11.051Z,8.20
2024-01-06T04:52:08.509Z,8.88
2024-01-06T04:53:05.756Z,8.52
2024-01-06T04:54:03.006Z,9.18
2024-01-06T04:55:00.251Z,8.43
2024-01-06T04:55:57.598Z,8.10
2024-01-06T04:56:54.783Z,7.35
2024-01-06T04:57:52.236Z,8.13
2024-01-06T04:58:49.676Z,10.15
2024-01-06T04:59:46.976Z,11.85
2024-01-06T05:00:44.488Z,9.05
2024-01-06T05:01:41.851Z,7.57
2024-01-06T05:02:39.290Z,9.68
2024-01-06T05:03:36.872Z,9.48
2024-01-06T05:04:34.279Z,9.55
2024-01-06T05:05:31.597Z,9.68
2024-01-06T05:06:29.118Z,6.28
2024-01-06T05:07:26.557Z,7.35
2024-01-06T05:08:24.139Z,6.97
2024-01-06T05:09:21.645Z,8.43
2024-01-06T05:10:18.913Z,8.43
2024-01-06T05:11:16.652Z,8.00
2024-01-06T05:12:14.238Z,11.93
2024-01-06T05:13:11.577Z,8.43
2024-01-06T05:14:08.925Z,9.30
2024-01-06T05:15:06.643Z,7.82
2024-01-06T05:16:04.558Z,7.37
2024-01-06T05:17:01.820Z,8.82
2024-01-06T05:17:59.054Z,8.80
2024-01-06T05:18:56.583Z,8.45
2024-01-06T05:19:53.915Z,10.55
2024-01-06T05:20:51.231Z,9.80
2024-01-06T05:21:49.543Z,9.30
2024-01-06T05:22:46.850Z,7.85
2024-01-06T05:23:44.524Z,8.52
2024-01-06T05:24:42.285Z,8.88
2024-01-06T05:25:39.849Z,8.07
2024-01-06T05:26:37.310Z,9.40
2024-01-06T05:27:34.654Z,8.25
2024-01-06T05:28:32.187Z,8.70
2024-01-06T05:29:29.576Z,8.18
2024-01-06T05:30:26.875Z,8.15
2024-01-06T05:31:24.238Z,8.00
2024-01-06T05:32:21.712Z,7.95
2024-01-06T05:33:19.249Z,10.75
2024-01-06T05:34:17.039Z,9.88
2024-01-06T05:35:14.431Z,9.82
2024-01-06T05:36:11.888Z,8.70
2024-01-06T05:37:09.047Z,10.68
2024-01-06T05:38:06.202Z,13.43
2024-01-06T05:39:03.599Z,9.13
2024-01-06T05:40:03.405Z,9.18
2024-01-06T05:41:00.553Z,8.70
2024-01-06T05:41:58.091Z,9.93
2024-01-06T05:42:56.972Z,8.82
2024-01-06T05:43:54.404Z,10.82
2024-01-06T05:44:51.947Z,8.52
2024-01-06T05:45:49.402Z,9.82
2024-01-06T05:46:46.875Z,9.00
2024-01-06T05:47:44.308Z,10.98
2024-01-06T05:48:43.014Z,11.98
2024-01-06T05:49:44.878Z,11.50
2024-01-06T05:50:42.662Z,10.15
2024-01-06T05:51:46.258Z,9.77
2024-01-06T05:52:44.229Z,9.18
2024-01-06T05:53:43.431Z,9.98
2024-01-06T05:54:44.024Z,11.32
2024-01-06T05:55:41.361Z,10.73
2024-01-06T05:56:38.652Z,10.30
2024-01-06T05:57:35.953Z,11.77
2024-01-06T05:58:33.294Z,9.68
2024-01-06T05:59:30.534Z,11.23
2024-01-06T06:00:27.887Z,8.25
2024-01-06T06:01:25.406Z,10.43
2024-01-06T06:02:22.692Z,11.38
2024-01-06T06:03:19.999Z,13.80
2024-01-06T06:04:17.602Z,14.38
2024-01-06T06:05:15.041Z,17.80
2024-01-06T06:06:12.591Z,18.70
2024-01-06T06:07:10.147Z,22.08
2024-01-06T06:08:07.715Z,22.52
2024-01-06T06:09:08.480Z,22.30
2024-01-06T06:10:09.008Z,19.10
2024-01-06T06:11:12.432Z,21.08
2024-01-06T06:12:09.913Z,22.60
2024-01-06T06:13:07.198Z,21.40
2024-01-06T06:14:04.643Z,23.62
2024-01-06T06:15:02.363Z,24.40
2024-01-06T06:15:59.807Z,20.20
2024-01-06T06:16:58.191Z,22.95
2024-01-06T06:17:55.901Z,20.55
2024-01-06T06:18:53.469Z,21.80
2024-01-06T06:19:51.726Z,22.58
2024-01-06T06:20:49.262Z,20.98
2024-01-06T06:21:47.719Z,24.35
2024-01-06T06:22:45.217Z,22.33
2024-01-06T06:23:42.508Z,23.90
2024-01-06T06:24:39.790Z,24.40
2024-01-06T06:25:40.047Z,23.62
2024-01-06T06:26:40.809Z,20.50
2024-01-06T06:27:41.602Z,19.92
2024-01-06T06:28:39.709Z,21.02
2024-01-06T06:29:37.132Z,18.90
2024-01-06T06:30:34.523Z,22.92
2024-01-06T06:31:31.940Z,26.37
2024-01-06T06:32:29.374Z,22.75
2024-01-06T06:33:27.263Z,22.52
2024-01-06T06:34:25.026Z,21.35
2024-01-06T06:35:23.495Z,20.95
2024-01-06T06:36:22.178Z,23.38
2024-01-06T06:37:19.717Z,22.75
2024-01-06T06:38:16.972Z,25.85
2024-01-06T06:39:14.279Z,23.10
2024-01-06T06:40:12.094Z,23.42
2024-01-06T06:41:09.318Z,26.27
2024-01-06T06:42:06.709Z,24.60
2024-01-06T06:43:04.218Z,24.45
2024-01-06T06:44:01.452Z,27.40
2024-01-06T06:44:58.609Z,25.65
2024-01-06T06:45:57.122Z,27.27
2024-01-06T06:46:54.628Z,22.52
2024-01-06T06:47:51.930Z,23.05
2024-01-06T06:48:49.266Z,23.95
2024-01-06T06:49:46.850Z,25.37
2024-01-06T06:50:45.088Z,24.75
2024-01-06T06:51:48.165Z,24.75
2024-01-06T06:52:45.891Z,23.83
2024-01-06T06:53:43.182Z,26.05
2024-01-06T06:54:40.799Z,22.30
2024-01-06T06:55:39.116Z,28.15
2024-01-06T06:56:36.873Z,25.42
2024-01-06T06:57:34.241Z,27.48
2024-01-06T06:58:31.472Z,27.48
2024-01-06T06:59:28.581Z,24.50
2024-01-06T07:00:25.956Z,25.77
2024-01-06T07:01:23.398Z,28.10
2024-01-06T07:02:20.717Z,28.90
2024-01-06T07:03:18.140Z,26.42
2024-01-06T07:04:15.463Z,24.45
2024-01-06T07:05:12.774Z,26.30
2024-01-06T07:06:10.046Z,28.77
2024-01-06T07:07:07.495Z,24.48
2024-01-06T07:08:05.193Z,27.33
2024-01-06T07:09:02.368Z,28.38
2024-01-06T07:09:59.671Z,26.45
2024-01-06T07:10:58.066Z,27.45
2024-01-06T07:11:55.336Z,27.08
2024-01-06T07:12:52.750Z,31.12
2024-01-06T07:13:50.008Z,29.00
2024-01-06T07:14:47.263Z,31.83
2024-01-06T07:15:44.676Z,27.45
2024-01-06T07:16:41.914Z,28.90
2024-01-06T07:17:39.929Z,31.00
2024-01-06T07:18:37.745Z,31.92
2024-01-06T07:19:35.503Z,28.58
2024-01-06T07:20:33.353Z,29.65
2024-01-06T07:21:40.529Z,28.62
2024-01-06T07:22:38.118Z,30.08
2024-01-06T07:23:36.352Z,27.10
2024-01-06T07:24:37.843Z,30.95
2024-01-06T07:25:35.607Z,29.23
2024-01-06T07:26:33.351Z,31.27
2024-01-06T07:27:30.639Z,29.17
2024-01-06T07:28:28.514Z,30.40
2024-01-06T07:29:25.844Z,31.17
2024-01-06T07:30:23.137Z,29.98
2024-01-06T07:31:20.638Z,34.95
2024-01-06T07:32:17.961Z,35.58
2024-01-06T07:33:15.346Z,30.88
2024-01-06T07:34:12.757Z,32.40
2024-01-06T07:35:10.176Z,30.85
2024-01-06T07:36:07.721Z,31.52
2024-01-06T07:37:05.121Z,33.10
2024-01-06T07:38:02.469Z,34.70
2024-01-06T07:39:06.729Z,32.35
2024-01-06T07:40:04.552Z,34.88
2024-01-06T07:41:02.258Z,35.83
2024-01-06T07:41:59.587Z,33.85
2024-01-06T07:42:56.845Z,34.08
2024-01-06T07:43:54.182Z,38.70
2024-01-06T07:44:51.573Z,33.13
2024-01-06T07:45:49.770Z,31.92
2024-01-06T07:46:46.990Z,36.15
2024-01-06T07:47:44.728Z,35.97
2024-01-06T07:48:42.153Z,34.80
2024-01-06T07:49:39.595Z,37.30
2024-01-06T07:50:36.919Z,35.55
2024-01-06T07:51:36.275Z,34.83
2024-01-06T07:52:34.310Z,35.35
2024-01-06T07:53:31.863Z,35.33
2024-01-06T07:54:29.244Z,39.45
2024-01-06T07:55:30.069Z,40.33
2024-01-06T07:56:27.717Z,43.05
2024-01-06T07:57:26.143Z,37.88
2024-01-06T07:58:23.575Z,38.35
2024-01-06T07:59:20.858Z,35.65
2024-01-06T08:00:18.173Z,38.42
2024-01-06T08:01:15.721Z,35.03
2024-01-06T08:02:13.151Z,36.65
2024-01-06T08:03:10.689Z,34.75
2024-01-06T08:04:08.309Z,35.92
2024-01-06T08:05:05.831Z,39.50
2024-01-06T08:06:03.127Z,34.22
2024-01-06T08:07:00.573Z,38.15
2024-01-06T08:07:59.687Z,39.60
2024-01-06T08:08:56.959Z,41.28
2024-01-06T08:09:54.442Z,39.63
2024-01-06T08:10:53.254Z,37.65
2024-01-06T08:11:50.808Z,39.50
2024-01-06T08:12:48.155Z,36.88
2024-01-06T08:13:45.501Z,35.83
2024-01-06T08:14:42.796Z,36.60
2024-01-06T08:15:42.132Z,35.63
2024-01-06T08:16:39.562Z,36.72
2024-01-06T08:17:37.481Z,37.72
2024-01-06T08:18:35.239Z,36.53
2024-01-06T08:19:34.071Z,37.38
2024-01-06T08:20:31.947Z,33.65
2024-01-06T08:21:29.581Z,37.35
2024-01-06T08:22:26.842Z,35.72
2024-01-06T08:23:24.476Z,38.22
2024-01-06T08:24:21.729Z,37.03
2024-01-06T08:25:19.561Z,37.97
2024-01-06T08:26:18.152Z,37.40
2024-01-06T08:27:15.469Z,34.85
2024-01-06T08:28:12.871Z,39.05
2024-01-06T08:29:11.192Z,36.30
2024-01-06T08:30:09.664Z,39.75
2024-01-06T08:31:07.156Z,36.60
2024-01-06T08:32:04.990Z,37.40
2024-01-06T08:33:03.226Z,36.75
2024-01-06T08:34:01.662Z,38.97
2024-01-06T08:34:59.948Z,36.63
2024-01-06T08:35:57.308Z,37.00
2024-01-06T08:36:54.886Z,45.38
2024-01-06T08:37:53.135Z,36.67
2024-01-06T08:38:50.464Z,37.20
2024-01-06T08:39:47.828Z,38.78
2024-01-06T08:40:50.895Z,39.92
2024-01-06T08:41:48.243Z,43.28
2024-01-06T08:42:47.695Z,40.25
2024-01-06T08:43:44.992Z,39.05
2024-01-06T08:44:42.398Z,40.35
2024-01-06T08:45:41.998Z,37.13
2024-01-06T08:46:41.196Z,38.25
2024-01-06T08:47:39.055Z,38.10
2024-01-06T08:48:39.246Z,34.63
2024-01-06T08:49:37.790Z,38.55
2024-01-06T08:50:35.863Z,40.60
2024-01-06T08:51:33.395Z,35.78
2024-01-06T08:52:30.637Z,37.47
2024-01-06T08:53:27.923Z,43.70
2024-01-06T08:54:25.627Z,40.53
2024-01-06T08:55:24.429Z,39.05
2024-01-06T08:56:23.143Z,37.83
2024-01-06T08:57:20.491Z,41.72
2024-01-06T08:58:19.136Z,40.88
2024-01-06T08:59:17.520Z,41.72
2024-01-06T09:00:16.427Z,43.50
2024-01-06T09:01:15.291Z,42.70
2024-01-06T09:02:13.403Z,42.20
2024-01-06T09:03:11.845Z,39.72
2024-01-06T09:04:09.745Z,40.17
2024-01-06T09:05:08.053Z,41.08
2024-01-06T09:06:05.745Z,44.95
2024-01-06T09:07:02.952Z,46.03
2024-01-06T09:08:00.218Z,42.72
2024-01-06T09:08:57.806Z,44.08
2024-01-06T09:09:55.245Z,41.83
2024-01-06T09:10:58.731Z,46.00
2024-01-06T09:11:57.476Z,48.25
2024-01-06T09:12:54.709Z,43.67
2024-01-06T09:13:54.162Z,45.03
2024-01-06T09:14:51.386Z,42.70
2024-01-06T09:15:48.811Z,42.83
2024-01-06T09:16:46.708Z,46.97
2024-01-06T09:17:44.697Z,43.03
2024-01-06T09:18:43.559Z,41.95
2024-01-06T09:19:40.932Z,44.72
2024-01-06T09:20:38.242Z,45.35
2024-01-06T09:21:37.394Z,42.47
2024-01-06T09:22:35.030Z,43.22
2024-01-06T09:23:34.356Z,43.08
2024-01-06T09:24:31.701Z,42.58
2024-01-06T09:25:29.625Z,43.83
2024-01-06T09:26:26.852Z,42.53
2024-01-06T09:27:24.181Z,44.97
2024-01-06T09:28:22.972Z,43.78
2024-01-06T09:29:20.383Z,43.42
2024-01-06T09:30:18.369Z,46.05
2024-01-06T09:31:15.948Z,44.30
2024-01-06T09:32:14.768Z,43.47
2024-01-06T09:33:12.228Z,47.22
2024-01-06T09:34:14.505Z,50.65
2024-01-06T09:35:12.177Z,44.97
2024-01-06T09:36:13.235Z,45.40
2024-01-06T09:37:10.401Z,44.08
2024-01-06T09:38:09.556Z,45.47
2024-01-06T09:39:07.006Z,47.33
2024-01-06T09:40:05.210Z,45.05
2024-01-06T09:41:02.754Z,44.65
2024-01-06T09:42:00.098Z,52.00
2024-01-06T09:42:57.531Z,44.08
2024-01-06T09:43:54.760Z,43.10
2024-01-06T09:44:52.084Z,42.50
2024-01-06T09:46:19.721Z,49.80
2024-01-06T09:47:19.990Z,45.15
2024-01-06T09:48:18.373Z,42.15
2024-01-06T09:49:16.724Z,46.90
2024-01-06T09:50:15.205Z,53.83
2024-01-06T09:51:13.629Z,48.00
2024-01-06T09:52:17.448Z,62.70
2024-01-06T09:53:15.413Z,65.43
2024-01-06T09:54:14.071Z,61.20
2024-01-06T09:55:12.893Z,66.00
2024-01-06T09:56:10.672Z,52.97
2024-01-06T09:57:13.392Z,48.25
2024-01-06T10:02:27.945Z,47.62
2024-01-06T10:03:28.009Z,51.15
2024-01-06T10:04:25.694Z,53.03
2024-01-06T10:05:23.466Z,50.25
2024-01-06T10:06:22.502Z,47.50
2024-01-06T10:07:19.992Z,54.20
2024-01-06T10:08:19.814Z,51.90
2024-01-06T10:09:17.732Z,52.95
2024-01-06T10:10:16.220Z,45.97
2024-01-06T10:11:14.988Z,47.72
2024-01-06T10:12:12.199Z,51.83
2024-01-06T10:13:09.404Z,50.70
2024-01-06T10:14:06.519Z,51.08
2024-01-06T10:15:04.483Z,49.00
2024-01-06T10:16:02.528Z,46.55
2024-01-06T10:17:00.103Z,50.45
2024-01-06T10:17:58.131Z,45.45
2024-01-06T10:18:55.542Z,48.75
2024-01-06T10:19:54.373Z,46.65
2024-01-06T10:20:51.753Z,44.28
2024-01-06T10:21:49.142Z,47.10
2024-01-06T10:22:46.712Z,43.53
2024-01-06T10:23:44.352Z,48.72
2024-01-06T10:24:41.771Z,45.03
2024-01-06T10:25:39.275Z,44.53
2024-01-06T10:26:36.641Z,44.30
2024-01-06T10:27:39.155Z,48.15
2024-01-06T10:28:36.842Z,40.10
2024-01-06T10:29:34.089Z,46.58
2024-01-06T10:30:31.602Z,44.15
2024-01-06T10:31:29.096Z,42.58
2024-01-06T10:32:30.440Z,41.05
2024-01-06T10:33:28.080Z,45.83
2024-01-06T10:34:25.914Z,43.92
2024-01-06T10:35:24.975Z,42.75
2024-01-06T10:36:23.794Z,44.88
2024-01-06T10:37:21.028Z,43.38
2024-01-06T10:38:19.540Z,48.33
2024-01-06T10:39:17.224Z,43.90
2024-01-06T10:40:19.666Z,49.15
2024-01-06T10:41:18.357Z,45.38
2024-01-06T10:42:16.784Z,43.35
2024-01-06T10:43:13.999Z,40.53
2024-01-06T10:44:12.717Z,40.67
2024-01-06T10:45:11.820Z,45.17
2024-01-06T10:46:12.433Z,46.10
2024-01-06T10:47:10.972Z,44.38
2024-01-06T10:48:09.026Z,46.05
2024-01-06T10:49:09.948Z,46.92
2024-01-06T10:50:09.472Z,47.72
2024-01-06T10:51:09.882Z,46.92
2024-01-06T10:52:07.649Z,43.33
2024-01-06T10:53:05.202Z,42.17
2024-01-06T10:54:03.488Z,43.90
2024-01-06T10:55:00.842Z,47.03
2024-01-06T10:56:00.714Z,43.28
2024-01-06T10:56:58.931Z,43.20
2024-01-06T10:57:57.464Z,43.25
2024-01-06T10:58:55.871Z,42.55
2024-01-06T10:59:53.936Z,41.90
2024-01-06T11:00:51.305Z,47.03
2024-01-06T11:01:48.873Z,42.03
2024-01-06T11:02:48.049Z,47.60
2024-01-06T11:03:46.401Z,48.47
2024-01-06T11:04:51.987Z,46.55
2024-01-06T11:05:50.017Z,42.47
2024-01-06T11:06:48.008Z,45.25
2024-01-06T11:07:48.636Z,40.15
2024-01-06T11:09:09.629Z,39.95
2024-01-06T11:10:17.349Z,42.25
2024-01-06T11:11:14.749Z,44.53
2024-01-06T11:12:11.958Z,42.30
2024-01-06T11:13:21.765Z,43.33
2024-01-06T11:14:18.903Z,40.15
2024-01-06T11:15:44.795Z,41.30
2024-01-06T11:16:42.126Z,42.95
2024-01-06T11:18:00.188Z,41.47
2024-01-06T11:18:57.860Z,45.80
2024-01-06T11:20:06.660Z,40.42
2024-01-06T11:21:15.763Z,40.60
2024-01-06T11:22:37.440Z,40.70
2024-01-06T11:23:36.672Z,46.37
2024-01-06T11:24:38.837Z,39.83
2024-01-06T11:25:36.179Z,41.10
2024-01-06T11:26:33.424Z,39.35
2024-01-06T11:27:30.890Z,39.67
2024-01-06T11:28:28.165Z,44.05
2024-01-06T11:29:25.394Z,47.22
2024-01-06T11:30:30.871Z,42.13
2024-01-06T11:31:34.310Z,41.47
2024-01-06T11:32:40.377Z,37.53
2024-01-06T11:33:50.538Z,36.95
2024-01-06T11:34:59.094Z,39.22
2024-01-06T11:35:56.265Z,36.53
2024-01-06T11:36:53.504Z,38.47
2024-01-06T11:37:51.242Z,40.28
2024-01-06T11:38:52.178Z,38.03
2024-01-06T11:39:49.586Z,40.12
2024-01-06T11:40:46.757Z,37.33
2024-01-06T11:41:53.565Z,39.67
2024-01-06T11:43:01.989Z,43.10
2024-01-06T11:44:00.114Z,39.80
2024-01-06T11:45:03.194Z,38.72
2024-01-06T11:46:02.221Z,40.22
2024-01-06T11:47:01.026Z,42.92
2024-01-06T11:48:04.885Z,38.67
2024-01-06T11:49:02.654Z,35.58
2024-01-06T11:50:00.972Z,38.05
2024-01-06T11:50:59.920Z,38.67
2024-01-06T11:51:58.415Z,42.05
2024-01-06T11:52:56.648Z,36.90
2024-01-06T11:53:54.102Z,39.95
2024-01-06T11:54:51.799Z,45.30
2024-01-06T11:55:50.381Z,38.67
2024-01-06T11:56:47.554Z,38.83
2024-01-06T11:57:44.830Z,38.80
2024-01-06T11:58:42.382Z,39.33
2024-01-06T11:59:39.657Z,39.38
2024-01-06T12:00:41.900Z,36.00
2024-01-06T12:01:40.520Z,37.25
2024-01-06T12:02:37.820Z,36.53
2024-01-06T12:03:35.139Z,35.17
2024-01-06T12:04:33.292Z,39.72
2024-01-06T12:05:30.930Z,38.50
2024-01-06T12:06:28.161Z,37.05
2024-01-06T12:07:25.590Z,35.97
2024-01-06T12:08:22.937Z,38.35
2024-01-06T12:09:20.947Z,35.45
2024-01-06T12:10:21.966Z,38.75
2024-01-06T12:11:19.710Z,38.20
2024-01-06T12:12:18.266Z,38.80
2024-01-06T12:13:18.386Z,39.72
2024-01-06T12:14:17.165Z,37.30
2024-01-06T12:15:14.409Z,37.17
2024-01-06T12:16:11.691Z,38.63
2024-01-06T12:17:08.968Z,41.25
2024-01-06T12:18:07.359Z,37.35
2024-01-06T12:19:05.274Z,36.80
2024-01-06T12:20:03.260Z,34.30
2024-01-06T12:21:00.511Z,38.47
2024-01-06T12:21:58.084Z,34.15
2024-01-06T12:22:56.882Z,32.92
2024-01-06T12:23:54.302Z,34.50
2024-01-06T12:24:52.157Z,36.97
2024-01-06T12:25:52.209Z,34.45
2024-01-06T12:26:49.702Z,33.95
2024-01-06T12:27:47.932Z,35.58
2024-01-06T12:28:50.102Z,39.47
2024-01-06T12:29:47.469Z,37.88
2024-01-06T12:30:46.994Z,34.88
2024-01-06T12:31:45.481Z,38.72
2024-01-06T12:32:43.980Z,35.55
2024-01-06T12:33:41.927Z,33.42
2024-01-06T12:34:40.713Z,36.92
2024-01-06T12:35:38.400Z,34.10
2024-01-06T12:36:39.479Z,33.97
2024-01-06T12:37:42.186Z,32.20
2024-01-06T12:38:39.951Z,33.97
2024-01-06T12:39:37.164Z,33.10
2024-01-06T12:40:34.376Z,32.58
2024-01-06T12:41:32.760Z,31.33
2024-01-06T12:42:30.031Z,33.00